• Join FlightAware (Why Join?)
  • Login
  • US Flag 
12:16PM EDT


 

Airport Tracker/Info


-or-


 

Live Flight TrackerFlight Track Log ✈ ASQ5013 ✈ 10-Apr-2013 ✈ KPHF - KATL

Flight Track Log - Related Links

Times and Time Zones

All times are in EDT time to prevent confusion due to time zone crossing. See the ASQ5013 flight status page for this flight to view local times or setup timezone preferences in your user account.

Time Position Orientation Groundspeed Altitude Reporting Facility
EDT Latitude Longitude Course Direction KTS MPH feet Rate Location/Type
04:46PM 37.0825 -76.5811 236° Southwest 250 288 2,500  Level Washington Center
04:47PM 37.0381 -76.6378 226° Southwest 251 289 5,100 2,460 Climbing Washington Center
04:48PM 36.9664 -76.7175 222° Southwest 267 307 8,200 2,160 Climbing Washington Center
04:49PM 36.9094 -76.7842 223° Southwest 272 313 10,400 1,260 Climbing Washington Center
04:50PM 36.8461 -76.8611 224° Southwest 293 337 10,800 720 Climbing Washington Center
04:51PM 36.7703 -76.9453 222° Southwest 334 384 11,900 1,200 Climbing Washington Center
04:52PM 36.7022 -77.0400 228° Southwest 362 417 13,300 1,380 Climbing Washington Center
04:53PM 36.6508 -77.1506 240° Southwest 374 430 14,700 1,320 Climbing Washington Center
04:54PM 36.5972 -77.2633 239° Southwest 379 436 16,000 660 Climbing Washington Center
04:55PM 36.5433 -77.3808 240° Southwest 386 444 16,100 540 Climbing Washington Center
04:56PM 36.4872 -77.5011 240° Southwest 396 456 17,100 1,080 Climbing Washington Center
04:57PM 36.4311 -77.6211 240° Southwest 402 463 18,300 1,260 Climbing Washington Center
04:58PM 36.3769 -77.7331 239° Southwest 397 457 19,700 1,200 Climbing Washington Center
04:59PM 36.3225 -77.8503 240° Southwest 397 457 20,700 1,020 Climbing Washington Center
05:00PM 36.2497 -77.9514 228° Southwest 397 457 21,800 780 Climbing Washington Center
05:01PM 36.1564 -78.0308 215° Southwest 394 453 22,300 480 Climbing Washington Center
05:02PM 36.0606 -78.1153 215° Southwest 415 478 22,800 480 Climbing Washington Center
05:03PM 35.9628 -78.1992 215° Southwest 425 489 23,300 480 Climbing Washington Center
05:04PM 35.8672 -78.2833 216° Southwest 430 495 23,800 480 Climbing Washington Center
05:05PM 35.7672 -78.3669 214° Southwest 430 495 24,300 480 Climbing Washington Center
05:06PM 35.6692 -78.4531 216° Southwest 430 495 24,800 480 Climbing Washington Center
05:07PM 35.5753 -78.5314 214° Southwest 442 509 25,300 780 Climbing Washington Center
05:08PM 35.4689 -78.6219 215° Southwest 442 509 26,400 840 Climbing Washington Center
05:09PM 35.3814 -78.6975 215° Southwest 432 497 27,000 480 Climbing Washington Center
05:10PM 35.2811 -78.7825 215° Southwest 437 503 27,400 420 Climbing Washington Center
05:11PM 35.1828 -78.8650 214° Southwest 437 503 27,900 300 Climbing Washington Center
05:12PM 35.0844 -78.9475 214° Southwest 431 496 28,000  Climbing Washington Center
05:13PM 34.9797 -79.0369 215° Southwest 442 509 28,000  Level Washington Center
05:14PM 34.8769 -79.1236 215° Southwest 453 521 28,000  Level Washington Center
05:15PM 34.7722 -79.2128 215° Southwest 458 527 28,000  Level Washington Center
05:16PM 34.6672 -79.2964 213° Southwest 458 527 28,000  Level Washington Center
05:18PM 34.4842 -79.4492 215° Southwest 470 541 28,000  Level Jacksonville Center
05:19PM 34.3800 -79.5364 215° Southwest 470 541 28,000  Level Jacksonville Center
05:20PM 34.2758 -79.6208 214° Southwest 464 534 28,000  Level Jacksonville Center
05:21PM 34.2103 -79.7514 239° Southwest 427 491 28,000  Level Jacksonville Center
05:22PM 34.1722 -79.8908 252° West 425 489 28,000  Level Jacksonville Center
05:23PM 34.1356 -80.0300 252° West 431 496 28,000 -60 Level Jacksonville Center
05:25PM 34.0625 -80.3106 253° West 443 510 27,900  Descending Jacksonville Center
05:26PM 34.0256 -80.4519 253° West 443 510 28,000  Climbing Jacksonville Center
05:27PM 33.9867 -80.5933 252° West 443 510 28,000  Level Jacksonville Center
05:28PM 33.9494 -80.7344 252° West 448 516 28,000  Level Jacksonville Center
05:29PM 33.9081 -80.8756 251° West 448 516 28,000  Level Jacksonville Center
05:30PM 33.8706 -81.0142 252° West 448 516 28,000  Level Jacksonville Center
05:31PM 33.8286 -81.1525 250° West 443 510 28,000  Level Jacksonville Center
05:32PM 33.7886 -81.2908 251° West 443 510 28,000  Level Jacksonville Center
05:33PM 33.7486 -81.4289 251° West 443 510 28,000  Level Jacksonville Center
05:36PM 33.6478 -81.7556 250° West 440 506 28,000  Level Atlanta Center
05:37PM 33.6086 -81.8939 251° West 440 506 28,000  Level Atlanta Center
05:38PM 33.5650 -82.0319 249° West 440 506 28,000 -420 Level Atlanta Center
05:39PM 33.5233 -82.1725 250° West 440 506 27,200 -900 Descending Atlanta Center
05:40PM 33.4814 -82.3053 249° West 460 529 26,300 -960 Descending Atlanta Center
05:41PM 33.4436 -82.4406 252° West 454 522 25,300 -1,020 Descending Atlanta Center
05:42PM 33.3975 -82.5833 249° West 454 522 24,300 -660 Descending Atlanta Center
05:43PM 33.3531 -82.7308 250° West 443 510 24,000 -180 Descending Atlanta Center
05:44PM 33.3147 -82.8531 249° West 436 502 24,000  Level Atlanta Center
05:45PM 33.2681 -83.0053 250° West 444 511 24,000  Level Atlanta Center
05:46PM 33.2275 -83.1422 251° West 449 517 24,000  Level Atlanta Center
05:47PM 33.1825 -83.2819 249° West 449 517 24,000  Level Atlanta Center
05:48PM 33.1394 -83.4161 249° West 449 517 24,000 -120 Level Atlanta Center
05:49PM 33.0689 -83.5133 229° Southwest 407 468 23,800 -720 Descending Atlanta Center
05:50PM 33.0064 -83.5706 218° Southwest 372 428 22,600 -1,860 Descending Atlanta Center
05:51PM 32.9881 -83.6672 257° West 304 350 20,100 -2,700 Descending Atlanta Center
05:52PM 33.0736 -83.7364 326° Northwest 258 297 17,300 -3,240 Descending Atlanta Center
05:52PM 33.1667 -83.7833 337° Northwest 420 483 14,400 -1,920 Descending Atlanta TRACON
05:53PM 33.2500 -83.8667 320° Northwest 402 463 14,000 -720 Descending Atlanta TRACON
05:54PM 33.3333 -83.9833 311° West 407 468 13,000 -960 Descending Atlanta TRACON
05:55PM 33.4000 -84.0833 309° West 407 468 12,100 -540 Descending Atlanta TRACON
05:56PM 33.4667 -84.1833 309° West 367 422 12,000 -60 Descending Atlanta TRACON
05:57PM 33.5167 -84.2667 306° West 293 337 12,000 -360 Level Atlanta TRACON
05:58PM 33.5500 -84.3500 296° West 248 285 11,300 -960 Descending Atlanta TRACON
05:59PM 33.5500 -84.4167 270° West 251 289 10,000 -1,440 Descending Atlanta TRACON
06:00PM 33.5500 -84.5000 270° West 241 277 8,500 -1,800 Descending Atlanta TRACON
06:01PM 33.5500 -84.5833 270° West 229 264 6,400 -1,500 Descending Atlanta TRACON
06:02PM 33.5500 -84.6500 270° West 190 219 5,500 -1,140 Descending Atlanta TRACON
06:03PM 33.6000 -84.6500 360° North 198 228 4,200 -1,260 Descending Atlanta TRACON
06:04PM 33.6167 -84.6000 68° East 176 203 3,000 -780 Descending Atlanta TRACON
06:06PM 33.6167 -84.5333 90° East 172 198 2,600 -600 Descending Atlanta TRACON
06:07PM 33.6167 -84.4833 90° East 156 180 1,800 -840 Descending Atlanta TRACON
06:09PM 33.6367 -84.4279 64° Northeast  Level Estimated
06:16PM 33.6367 -84.4279 64° Northeast  Level Estimated